sensor_id;sensor_type;location;lat;lon;timestamp;pressure;altitude;pressure_sealevel;temperature;humidity
43683;BME280;29285;52.128;21.060;2023-03-18T00:03:20;100890.56;;;5.36;62.11
43683;BME280;29285;52.128;21.060;2023-03-18T00:08:22;100891.23;;;5.34;61.95
43683;BME280;29285;52.128;21.060;2023-03-18T00:13:23;100893.58;;;5.31;61.95
43683;BME280;29285;52.128;21.060;2023-03-18T00:18:25;100891.95;;;5.26;61.79
43683;BME280;29285;52.128;21.060;2023-03-18T00:23:26;100888.48;;;5.24;61.76
43683;BME280;29285;52.128;21.060;2023-03-18T00:28:28;100887.42;;;5.22;61.92
43683;BME280;29285;52.128;21.060;2023-03-18T00:33:29;100884.45;;;5.19;61.80
43683;BME280;29285;52.128;21.060;2023-03-18T00:38:31;100878.48;;;5.22;61.88
43683;BME280;29285;52.128;21.060;2023-03-18T00:43:33;100875.05;;;5.22;61.86
43683;BME280;29285;52.128;21.060;2023-03-18T00:48:45;100864.19;;;5.21;61.88
43683;BME280;29285;52.128;21.060;2023-03-18T00:53:47;100861.21;;;5.17;61.89
43683;BME280;29285;52.128;21.060;2023-03-18T00:58:49;100858.11;;;5.18;61.86
43683;BME280;29285;52.128;21.060;2023-03-18T01:03:51;100853.56;;;5.13;61.58
43683;BME280;29285;52.128;21.060;2023-03-18T01:08:53;100851.86;;;5.12;61.73
43683;BME280;29285;52.128;21.060;2023-03-18T01:13:54;100845.10;;;5.09;61.63
43683;BME280;29285;52.128;21.060;2023-03-18T01:18:55;100839.35;;;5.05;61.55
43683;BME280;29285;52.128;21.060;2023-03-18T01:23:56;100836.77;;;5.04;61.68
43683;BME280;29285;52.128;21.060;2023-03-18T01:28:59;100826.23;;;5.01;61.62
43683;BME280;29285;52.128;21.060;2023-03-18T01:34:01;100814.84;;;4.99;61.52
43683;BME280;29285;52.128;21.060;2023-03-18T01:39:02;100811.73;;;4.97;61.31
43683;BME280;29285;52.128;21.060;2023-03-18T01:44:03;100808.25;;;4.95;61.51
43683;BME280;29285;52.128;21.060;2023-03-18T01:54:25;100811.47;;;4.91;61.33
43683;BME280;29285;52.128;21.060;2023-03-18T01:59:27;100809.20;;;4.89;61.38
43683;BME280;29285;52.128;21.060;2023-03-18T02:04:41;100809.83;;;4.85;61.34
43683;BME280;29285;52.128;21.060;2023-03-18T02:09:43;100803.91;;;4.81;60.88
43683;BME280;29285;52.128;21.060;2023-03-18T02:14:44;100806.98;;;4.80;60.99
43683;BME280;29285;52.128;21.060;2023-03-18T02:19:52;100809.97;;;4.82;61.25
43683;BME280;29285;52.128;21.060;2023-03-18T02:25:02;100809.80;;;4.83;61.23
43683;BME280;29285;52.128;21.060;2023-03-18T02:30:06;100809.61;;;4.82;61.18
43683;BME280;29285;52.128;21.060;2023-03-18T02:35:10;100804.27;;;4.81;61.09
43683;BME280;29285;52.128;21.060;2023-03-18T02:40:12;100798.20;;;4.77;61.11
43683;BME280;29285;52.128;21.060;2023-03-18T02:45:34;100794.08;;;4.78;61.14
43683;BME280;29285;52.128;21.060;2023-03-18T02:50:36;100791.02;;;4.81;61.28
43683;BME280;29285;52.128;21.060;2023-03-18T02:55:37;100793.95;;;4.81;61.03
43683;BME280;29285;52.128;21.060;2023-03-18T03:00:38;100794.27;;;4.78;61.22
43683;BME280;29285;52.128;21.060;2023-03-18T03:05:39;100794.55;;;4.76;60.93
43683;BME280;29285;52.128;21.060;2023-03-18T03:10:40;100791.45;;;4.75;60.83
43683;BME280;29285;52.128;21.060;2023-03-18T03:15:41;100785.23;;;4.72;61.03
43683;BME280;29285;52.128;21.060;2023-03-18T03:20:42;100783.19;;;4.74;61.01
43683;BME280;29285;52.128;21.060;2023-03-18T03:25:44;100779.03;;;4.72;60.77
43683;BME280;29285;52.128;21.060;2023-03-18T03:30:45;100780.36;;;4.69;60.84
43683;BME280;29285;52.128;21.060;2023-03-18T03:35:46;100776.55;;;4.67;60.74
43683;BME280;29285;52.128;21.060;2023-03-18T03:40:47;100774.59;;;4.62;60.63
43683;BME280;29285;52.128;21.060;2023-03-18T03:45:48;100776.12;;;4.61;60.78
43683;BME280;29285;52.128;21.060;2023-03-18T03:50:49;100772.50;;;4.60;60.74
43683;BME280;29285;52.128;21.060;2023-03-18T03:55:50;100776.92;;;4.57;60.48
43683;BME280;29285;52.128;21.060;2023-03-18T04:00:51;100773.30;;;4.56;60.58
43683;BME280;29285;52.128;21.060;2023-03-18T04:05:52;100773.57;;;4.52;60.62
43683;BME280;29285;52.128;21.060;2023-03-18T04:10:53;100773.19;;;4.50;60.49
43683;BME280;29285;52.128;21.060;2023-03-18T04:15:54;100781.25;;;4.49;60.44
43683;BME280;29285;52.128;21.060;2023-03-18T04:20:55;100783.61;;;4.47;60.32
43683;BME280;29285;52.128;21.060;2023-03-18T04:25:56;100785.51;;;4.47;60.23
43683;BME280;29285;52.128;21.060;2023-03-18T04:30:57;100782.23;;;4.46;60.10
43683;BME280;29285;52.128;21.060;2023-03-18T04:35:58;100783.09;;;4.46;59.99
43683;BME280;29285;52.128;21.060;2023-03-18T04:40:59;100787.71;;;4.44;60.14
43683;BME280;29285;52.128;21.060;2023-03-18T04:45:59;100793.59;;;4.46;60.23
43683;BME280;29285;52.128;21.060;2023-03-18T04:51:01;100798.22;;;4.46;60.07
43683;BME280;29285;52.128;21.060;2023-03-18T04:56:02;100802.14;;;4.45;60.06
43683;BME280;29285;52.128;21.060;2023-03-18T05:01:03;100798.71;;;4.45;60.04
43683;BME280;29285;52.128;21.060;2023-03-18T05:06:04;100795.52;;;4.48;59.95
43683;BME280;29285;52.128;21.060;2023-03-18T05:11:05;100795.36;;;4.50;60.09
43683;BME280;29285;52.128;21.060;2023-03-18T05:16:06;100794.20;;;4.52;60.09
43683;BME280;29285;52.128;21.060;2023-03-18T05:21:08;100784.17;;;4.59;60.09
43683;BME280;29285;52.128;21.060;2023-03-18T05:26:09;100789.53;;;4.61;59.98
43683;BME280;29285;52.128;21.060;2023-03-18T05:31:11;100793.96;;;4.71;60.31
43683;BME280;29285;52.128;21.060;2023-03-18T05:36:12;100794.63;;;4.80;60.53
43683;BME280;29285;52.128;21.060;2023-03-18T05:41:14;100788.02;;;4.87;60.50
43683;BME280;29285;52.128;21.060;2023-03-18T05:46:15;100778.83;;;4.93;60.47
43683;BME280;29285;52.128;21.060;2023-03-18T05:51:16;100776.39;;;5.04;60.36
43683;BME280;29285;52.128;21.060;2023-03-18T05:56:17;100778.57;;;5.12;60.46
43683;BME280;29285;52.128;21.060;2023-03-18T06:01:18;100774.73;;;5.20;60.61
43683;BME280;29285;52.128;21.060;2023-03-18T06:06:19;100774.38;;;5.34;60.69
43683;BME280;29285;52.128;21.060;2023-03-18T06:11:21;100775.61;;;5.50;60.96
43683;BME280;29285;52.128;21.060;2023-03-18T06:16:21;100782.48;;;5.79;61.17
43683;BME280;29285;52.128;21.060;2023-03-18T06:21:23;100773.79;;;6.04;61.52
43683;BME280;29285;52.128;21.060;2023-03-18T06:26:24;100770.13;;;6.16;61.35
43683;BME280;29285;52.128;21.060;2023-03-18T06:31:25;100763.95;;;6.19;61.22
43683;BME280;29285;52.128;21.060;2023-03-18T06:36:26;100769.62;;;6.16;60.88
43683;BME280;29285;52.128;21.060;2023-03-18T06:41:27;100767.45;;;6.25;60.84
43683;BME280;29285;52.128;21.060;2023-03-18T06:46:28;100769.44;;;6.37;60.70
43683;BME280;29285;52.128;21.060;2023-03-18T06:51:30;100772.63;;;6.49;60.64
43683;BME280;29285;52.128;21.060;2023-03-18T06:56:32;100779.93;;;6.56;60.55
43683;BME280;29285;52.128;21.060;2023-03-18T07:01:40;100779.14;;;6.64;60.39
43683;BME280;29285;52.128;21.060;2023-03-18T07:06:40;100775.39;;;6.72;60.19
43683;BME280;29285;52.128;21.060;2023-03-18T07:11:41;100777.53;;;6.81;59.89
43683;BME280;29285;52.128;21.060;2023-03-18T07:16:44;100772.56;;;6.89;59.89
43683;BME280;29285;52.128;21.060;2023-03-18T07:21:45;100780.04;;;6.96;59.65
43683;BME280;29285;52.128;21.060;2023-03-18T07:26:47;100782.34;;;7.08;59.63
43683;BME280;29285;52.128;21.060;2023-03-18T07:31:49;100785.61;;;7.07;59.26
43683;BME280;29285;52.128;21.060;2023-03-18T07:36:50;100785.48;;;7.18;59.09
43683;BME280;29285;52.128;21.060;2023-03-18T07:41:52;100787.25;;;7.24;58.96
43683;BME280;29285;52.128;21.060;2023-03-18T07:46:53;100793.78;;;7.20;58.48
43683;BME280;29285;52.128;21.060;2023-03-18T07:51:55;100795.60;;;7.35;58.43
43683;BME280;29285;52.128;21.060;2023-03-18T07:56:55;100797.40;;;7.54;58.58
43683;BME280;29285;52.128;21.060;2023-03-18T08:01:56;100795.20;;;7.64;58.52
43683;BME280;29285;52.128;21.060;2023-03-18T08:06:57;100795.55;;;7.74;58.44
43683;BME280;29285;52.128;21.060;2023-03-18T08:11:58;100787.64;;;7.82;58.26
43683;BME280;29285;52.128;21.060;2023-03-18T08:17:00;100787.98;;;7.77;57.83
43683;BME280;29285;52.128;21.060;2023-03-18T08:22:01;100787.83;;;7.90;57.84
43683;BME280;29285;52.128;21.060;2023-03-18T08:27:02;100783.55;;;8.02;57.77
43683;BME280;29285;52.128;21.060;2023-03-18T08:32:03;100783.21;;;8.17;57.63
43683;BME280;29285;52.128;21.060;2023-03-18T08:37:04;100774.58;;;8.35;57.71
43683;BME280;29285;52.128;21.060;2023-03-18T08:42:05;100774.77;;;8.52;57.73
43683;BME280;29285;52.128;21.060;2023-03-18T08:47:06;100769.93;;;8.70;57.65
43683;BME280;29285;52.128;21.060;2023-03-18T08:52:07;100772.34;;;8.83;57.48
43683;BME280;29285;52.128;21.060;2023-03-18T08:57:09;100764.02;;;8.84;57.14
43683;BME280;29285;52.128;21.060;2023-03-18T09:02:13;100755.52;;;8.89;56.87
43683;BME280;29285;52.128;21.060;2023-03-18T09:07:17;100750.84;;;8.98;56.75
43683;BME280;29285;52.128;21.060;2023-03-18T09:12:18;100748.06;;;9.03;56.43
43683;BME280;29285;52.128;21.060;2023-03-18T09:17:19;100742.80;;;9.20;56.46
43683;BME280;29285;52.128;21.060;2023-03-18T09:22:20;100735.81;;;9.35;56.45
43683;BME280;29285;52.128;21.060;2023-03-18T09:27:22;100733.02;;;9.44;56.24
43683;BME280;29285;52.128;21.060;2023-03-18T09:32:23;100732.59;;;9.58;56.11
43683;BME280;29285;52.128;21.060;2023-03-18T09:37:24;100728.48;;;9.77;56.09
43683;BME280;29285;52.128;21.060;2023-03-18T09:47:48;100719.78;;;10.07;56.02
43683;BME280;29285;52.128;21.060;2023-03-18T09:58:03;100714.81;;;10.44;56.01
43683;BME280;29285;52.128;21.060;2023-03-18T10:03:14;100714.56;;;10.53;55.70
43683;BME280;29285;52.128;21.060;2023-03-18T10:13:42;100709.85;;;10.74;55.18
43683;BME280;29285;52.128;21.060;2023-03-18T10:18:45;100712.55;;;10.79;54.98
43683;BME280;29285;52.128;21.060;2023-03-18T10:29:02;100700.83;;;10.88;54.22
43683;BME280;29285;52.128;21.060;2023-03-18T10:34:21;100695.88;;;10.96;54.11
43683;BME280;29285;52.128;21.060;2023-03-18T10:39:23;100687.23;;;11.07;53.90
43683;BME280;29285;52.128;21.060;2023-03-18T10:49:30;100685.48;;;11.36;53.59
43683;BME280;29285;52.128;21.060;2023-03-18T10:54:44;100678.02;;;11.60;53.57
43683;BME280;29285;52.128;21.060;2023-03-18T10:59:52;100671.06;;;11.83;53.42
43683;BME280;29285;52.128;21.060;2023-03-18T11:04:55;100672.30;;;12.05;53.54
43683;BME280;29285;52.128;21.060;2023-03-18T11:10:09;100673.09;;;12.40;53.42
43683;BME280;29285;52.128;21.060;2023-03-18T11:15:11;100661.23;;;12.69;53.40
43683;BME280;29285;52.128;21.060;2023-03-18T11:25:47;100647.48;;;13.13;52.71
43683;BME280;29285;52.128;21.060;2023-03-18T11:30:49;100641.30;;;13.32;52.49
43683;BME280;29285;52.128;21.060;2023-03-18T11:35:53;100635.38;;;13.56;52.13
43683;BME280;29285;52.128;21.060;2023-03-18T11:46:10;100627.98;;;13.87;51.39
43683;BME280;29285;52.128;21.060;2023-03-18T11:56:15;100618.40;;;14.21;50.98
43683;BME280;29285;52.128;21.060;2023-03-18T12:01:22;100621.06;;;14.27;50.45
43683;BME280;29285;52.128;21.060;2023-03-18T12:06:26;100613.64;;;14.36;49.95
43683;BME280;29285;52.128;21.060;2023-03-18T12:17:13;100616.00;;;14.52;49.11
43683;BME280;29285;52.128;21.060;2023-03-18T12:27:23;100608.22;;;14.87;48.46
43683;BME280;29285;52.128;21.060;2023-03-18T12:32:34;100610.23;;;14.97;48.06
43683;BME280;29285;52.128;21.060;2023-03-18T12:37:49;100597.33;;;15.07;47.76
43683;BME280;29285;52.128;21.060;2023-03-18T12:43:03;100593.26;;;15.15;47.33
43683;BME280;29285;52.128;21.060;2023-03-18T12:48:23;100591.88;;;15.26;47.05
43683;BME280;29285;52.128;21.060;2023-03-18T12:58:51;100585.09;;;15.41;46.18
43683;BME280;29285;52.128;21.060;2023-03-18T13:03:55;100580.84;;;15.54;45.92
43683;BME280;29285;52.128;21.060;2023-03-18T13:09:00;100573.30;;;15.70;45.86
43683;BME280;29285;52.128;21.060;2023-03-18T13:14:04;100572.05;;;15.87;45.57
43683;BME280;29285;52.128;21.060;2023-03-18T13:19:06;100572.53;;;15.99;45.28
43683;BME280;29285;52.128;21.060;2023-03-18T13:39:47;100548.58;;;17.81;48.68
43683;BME280;29285;52.128;21.060;2023-03-18T13:44:55;100541.38;;;17.73;48.09
43683;BME280;29285;52.128;21.060;2023-03-18T13:49:59;100537.34;;;17.60;47.31
43683;BME280;29285;52.128;21.060;2023-03-18T13:55:02;100528.73;;;17.60;47.13
43683;BME280;29285;52.128;21.060;2023-03-18T14:00:12;100529.73;;;17.71;47.08
43683;BME280;29285;52.128;21.060;2023-03-18T14:10:35;100523.66;;;17.77;46.75
43683;BME280;29285;52.128;21.060;2023-03-18T14:15:37;100517.20;;;17.68;46.30
43683;BME280;29285;52.128;21.060;2023-03-18T14:20:39;100516.23;;;17.62;46.00
43683;BME280;29285;52.128;21.060;2023-03-18T14:25:42;100518.52;;;17.70;46.05
43683;BME280;29285;52.128;21.060;2023-03-18T14:30:44;100507.98;;;17.62;45.54
43683;BME280;29285;52.128;21.060;2023-03-18T14:35:47;100503.30;;;17.69;45.46
43683;BME280;29285;52.128;21.060;2023-03-18T14:40:48;100502.83;;;17.76;45.23
43683;BME280;29285;52.128;21.060;2023-03-18T14:45:51;100499.32;;;18.00;45.14
43683;BME280;29285;52.128;21.060;2023-03-18T14:50:56;100491.11;;;18.39;45.00
43683;BME280;29285;52.128;21.060;2023-03-18T14:56:00;100488.27;;;18.55;44.67
43683;BME280;29285;52.128;21.060;2023-03-18T15:01:06;100485.23;;;18.64;44.26
43683;BME280;29285;52.128;21.060;2023-03-18T15:06:27;100490.16;;;18.60;43.86
43683;BME280;29285;52.128;21.060;2023-03-18T15:11:28;100491.41;;;18.01;42.63
43683;BME280;29285;52.128;21.060;2023-03-18T15:16:35;100488.67;;;17.37;41.69
43683;BME280;29285;52.128;21.060;2023-03-18T15:21:36;100488.45;;;16.72;40.94
43683;BME280;29285;52.128;21.060;2023-03-18T15:26:38;100484.68;;;16.19;40.53
43683;BME280;29285;52.128;21.060;2023-03-18T15:31:41;100481.21;;;15.68;40.19
43683;BME280;29285;52.128;21.060;2023-03-18T15:36:43;100487.42;;;15.13;39.72
43683;BME280;29285;52.128;21.060;2023-03-18T15:41:45;100489.46;;;14.51;39.24
43683;BME280;29285;52.128;21.060;2023-03-18T15:46:46;100495.84;;;14.18;39.04
43683;BME280;29285;52.128;21.060;2023-03-18T15:51:47;100504.80;;;13.90;39.01
43683;BME280;29285;52.128;21.060;2023-03-18T15:56:49;100507.88;;;13.72;39.08
43683;BME280;29285;52.128;21.060;2023-03-18T16:01:52;100504.81;;;13.56;39.08
43683;BME280;29285;52.128;21.060;2023-03-18T16:06:53;100506.20;;;13.49;39.26
43683;BME280;29285;52.128;21.060;2023-03-18T16:11:55;100514.59;;;13.33;39.27
43683;BME280;29285;52.128;21.060;2023-03-18T16:16:57;100518.48;;;13.08;39.09
43683;BME280;29285;52.128;21.060;2023-03-18T16:21:59;100516.77;;;12.92;39.14
43683;BME280;29285;52.128;21.060;2023-03-18T16:26:59;100522.02;;;12.84;39.18
43683;BME280;29285;52.128;21.060;2023-03-18T16:32:03;100523.67;;;12.71;39.22
43683;BME280;29285;52.128;21.060;2023-03-18T16:37:04;100521.61;;;12.63;39.35
43683;BME280;29285;52.128;21.060;2023-03-18T16:42:07;100519.84;;;12.56;39.44
43683;BME280;29285;52.128;21.060;2023-03-18T16:47:20;100522.81;;;12.46;39.37
43683;BME280;29285;52.128;21.060;2023-03-18T16:52:22;100523.70;;;12.37;39.43
43683;BME280;29285;52.128;21.060;2023-03-18T16:57:23;100526.81;;;12.30;39.54
43683;BME280;29285;52.128;21.060;2023-03-18T17:02:28;100529.67;;;12.25;39.63
43683;BME280;29285;52.128;21.060;2023-03-18T17:07:30;100535.88;;;12.19;39.69
43683;BME280;29285;52.128;21.060;2023-03-18T17:12:33;100535.66;;;12.13;39.82
43683;BME280;29285;52.128;21.060;2023-03-18T17:17:35;100535.24;;;12.07;39.84
43683;BME280;29285;52.128;21.060;2023-03-18T17:22:36;100540.02;;;12.00;39.89
43683;BME280;29285;52.128;21.060;2023-03-18T17:27:44;100544.67;;;11.94;39.95
43683;BME280;29285;52.128;21.060;2023-03-18T17:32:46;100542.88;;;11.88;39.95
43683;BME280;29285;52.128;21.060;2023-03-18T17:37:47;100547.48;;;11.82;40.03
43683;BME280;29285;52.128;21.060;2023-03-18T17:42:49;100551.20;;;11.78;40.11
43683;BME280;29285;52.128;21.060;2023-03-18T17:47:50;100553.58;;;11.71;40.11
43683;BME280;29285;52.128;21.060;2023-03-18T17:52:52;100555.93;;;11.66;40.17
43683;BME280;29285;52.128;21.060;2023-03-18T17:57:53;100560.75;;;11.59;40.31
43683;BME280;29285;52.128;21.060;2023-03-18T18:02:54;100560.47;;;11.55;40.44
43683;BME280;29285;52.128;21.060;2023-03-18T18:07:55;100561.91;;;11.51;40.53
43683;BME280;29285;52.128;21.060;2023-03-18T18:12:56;100555.55;;;11.46;40.63
43683;BME280;29285;52.128;21.060;2023-03-18T18:17:57;100550.95;;;11.41;40.62
43683;BME280;29285;52.128;21.060;2023-03-18T18:22:58;100551.55;;;11.35;40.87
43683;BME280;29285;52.128;21.060;2023-03-18T18:28:00;100550.27;;;11.30;40.84
43683;BME280;29285;52.128;21.060;2023-03-18T18:33:01;100544.08;;;11.25;40.97
43683;BME280;29285;52.128;21.060;2023-03-18T18:38:02;100539.81;;;11.20;41.05
43683;BME280;29285;52.128;21.060;2023-03-18T18:43:03;100537.65;;;11.15;41.17
43683;BME280;29285;52.128;21.060;2023-03-18T18:48:09;100538.59;;;11.08;41.30
43683;BME280;29285;52.128;21.060;2023-03-18T18:53:15;100536.79;;;11.02;41.23
43683;BME280;29285;52.128;21.060;2023-03-18T18:58:18;100540.48;;;10.98;41.30
43683;BME280;29285;52.128;21.060;2023-03-18T19:03:20;100541.59;;;10.93;41.45
43683;BME280;29285;52.128;21.060;2023-03-18T19:13:26;100540.99;;;10.87;41.74
43683;BME280;29285;52.128;21.060;2023-03-18T19:18:31;100548.31;;;10.84;41.95
43683;BME280;29285;52.128;21.060;2023-03-18T19:23:34;100547.16;;;10.80;42.11
43683;BME280;29285;52.128;21.060;2023-03-18T19:28:36;100546.73;;;10.73;42.01
43683;BME280;29285;52.128;21.060;2023-03-18T19:33:46;100544.35;;;10.70;42.13
43683;BME280;29285;52.128;21.060;2023-03-18T19:38:51;100544.20;;;10.67;42.34
43683;BME280;29285;52.128;21.060;2023-03-18T19:43:57;100545.30;;;10.63;42.37
43683;BME280;29285;52.128;21.060;2023-03-18T19:48:59;100552.27;;;10.59;42.40
43683;BME280;29285;52.128;21.060;2023-03-18T19:54:00;100550.08;;;10.55;42.49
43683;BME280;29285;52.128;21.060;2023-03-18T19:59:03;100549.62;;;10.50;42.57
43683;BME280;29285;52.128;21.060;2023-03-18T20:04:05;100544.80;;;10.48;42.80
43683;BME280;29285;52.128;21.060;2023-03-18T20:09:06;100550.55;;;10.45;42.85
43683;BME280;29285;52.128;21.060;2023-03-18T20:14:16;100543.45;;;10.42;42.98
43683;BME280;29285;52.128;21.060;2023-03-18T20:19:19;100542.07;;;10.41;43.14
43683;BME280;29285;52.128;21.060;2023-03-18T20:24:22;100543.82;;;10.40;43.35
43683;BME280;29285;52.128;21.060;2023-03-18T20:29:28;100541.41;;;10.37;43.51
43683;BME280;29285;52.128;21.060;2023-03-18T20:34:29;100536.41;;;10.36;43.78
43683;BME280;29285;52.128;21.060;2023-03-18T20:39:30;100533.48;;;10.33;43.64
43683;BME280;29285;52.128;21.060;2023-03-18T20:44:31;100540.80;;;10.31;44.01
43683;BME280;29285;52.128;21.060;2023-03-18T20:49:32;100540.33;;;10.27;44.03
43683;BME280;29285;52.128;21.060;2023-03-18T20:54:33;100536.41;;;10.21;44.02
43683;BME280;29285;52.128;21.060;2023-03-18T20:59:34;100537.51;;;10.15;44.21
43683;BME280;29285;52.128;21.060;2023-03-18T21:04:35;100543.42;;;10.12;44.37
43683;BME280;29285;52.128;21.060;2023-03-18T21:09:36;100539.37;;;10.02;44.44
43683;BME280;29285;52.128;21.060;2023-03-18T21:14:39;100537.88;;;9.97;44.48
43683;BME280;29285;52.128;21.060;2023-03-18T21:19:39;100537.20;;;9.95;44.76
43683;BME280;29285;52.128;21.060;2023-03-18T21:24:41;100535.55;;;9.86;44.84
43683;BME280;29285;52.128;21.060;2023-03-18T21:29:41;100536.63;;;9.84;44.86
43683;BME280;29285;52.128;21.060;2023-03-18T21:34:42;100538.91;;;9.79;45.06
43683;BME280;29285;52.128;21.060;2023-03-18T21:39:43;100537.53;;;9.78;45.22
43683;BME280;29285;52.128;21.060;2023-03-18T21:44:44;100537.19;;;9.78;45.34
43683;BME280;29285;52.128;21.060;2023-03-18T21:49:45;100537.88;;;9.77;45.70
43683;BME280;29285;52.128;21.060;2023-03-18T21:54:46;100539.33;;;9.71;45.69
43683;BME280;29285;52.128;21.060;2023-03-18T21:59:48;100532.27;;;9.67;45.87
43683;BME280;29285;52.128;21.060;2023-03-18T22:04:49;100530.92;;;9.62;45.95
43683;BME280;29285;52.128;21.060;2023-03-18T22:09:50;100524.63;;;9.50;45.95
43683;BME280;29285;52.128;21.060;2023-03-18T22:14:51;100525.91;;;9.41;46.15
43683;BME280;29285;52.128;21.060;2023-03-18T22:19:52;100529.81;;;9.29;46.04
43683;BME280;29285;52.128;21.060;2023-03-18T22:24:54;100528.45;;;9.25;46.21
43683;BME280;29285;52.128;21.060;2023-03-18T22:29:55;100531.39;;;9.25;46.44
43683;BME280;29285;52.128;21.060;2023-03-18T22:34:57;100535.30;;;9.12;46.42
43683;BME280;29285;52.128;21.060;2023-03-18T22:39:57;100534.09;;;9.12;46.59
43683;BME280;29285;52.128;21.060;2023-03-18T22:44:58;100534.66;;;9.03;46.70
43683;BME280;29285;52.128;21.060;2023-03-18T22:49:59;100539.05;;;8.94;46.81
43683;BME280;29285;52.128;21.060;2023-03-18T22:55:01;100538.54;;;8.90;46.86
43683;BME280;29285;52.128;21.060;2023-03-18T23:00:03;100536.98;;;8.93;47.20
43683;BME280;29285;52.128;21.060;2023-03-18T23:05:19;100535.44;;;8.88;47.31
43683;BME280;29285;52.128;21.060;2023-03-18T23:10:20;100533.36;;;8.88;47.49
43683;BME280;29285;52.128;21.060;2023-03-18T23:15:21;100535.80;;;8.88;47.79
43683;BME280;29285;52.128;21.060;2023-03-18T23:20:22;100534.21;;;8.90;47.91
43683;BME280;29285;52.128;21.060;2023-03-18T23:25:23;100530.77;;;8.90;48.08
43683;BME280;29285;52.128;21.060;2023-03-18T23:30:24;100531.29;;;8.89;48.12
43683;BME280;29285;52.128;21.060;2023-03-18T23:35:25;100531.12;;;8.89;48.44
43683;BME280;29285;52.128;21.060;2023-03-18T23:40:26;100540.17;;;8.80;48.53
43683;BME280;29285;52.128;21.060;2023-03-18T23:45:27;100535.69;;;8.75;48.55
43683;BME280;29285;52.128;21.060;2023-03-18T23:50:28;100536.55;;;8.76;48.72
43683;BME280;29285;52.128;21.060;2023-03-18T23:55:29;100529.59;;;8.84;48.97
